createdAt,value
2023-03-06T00:01:06.424Z,81.43
2023-03-06T00:06:09.267Z,81.58
2023-03-06T00:11:14.976Z,81.57
2023-03-06T00:16:17.923Z,81.37
2023-03-06T00:21:21.037Z,81.46
2023-03-06T00:26:23.865Z,81.37
2023-03-06T00:31:26.852Z,81.54
2023-03-06T00:36:29.803Z,81.34
2023-03-06T00:41:32.690Z,81.12
2023-03-06T00:46:35.586Z,81.35
2023-03-06T00:51:38.402Z,81.27
2023-03-06T00:56:41.202Z,81.59
2023-03-06T01:01:43.993Z,81.70
2023-03-06T01:06:48.178Z,81.45
2023-03-06T01:11:51.091Z,81.67
2023-03-06T01:16:53.908Z,81.82
2023-03-06T01:21:56.884Z,82.01
2023-03-06T01:26:59.721Z,82.20
2023-03-06T01:32:02.690Z,81.87
2023-03-06T01:37:05.671Z,81.81
2023-03-06T01:42:08.568Z,82.02
2023-03-06T01:47:11.417Z,82.27
2023-03-06T01:52:16.464Z,82.33
2023-03-06T01:57:22.349Z,82.22
2023-03-06T02:02:25.295Z,82.21
2023-03-06T02:07:28.202Z,82.56
2023-03-06T02:12:31.204Z,82.62
2023-03-06T02:17:35.173Z,82.49
2023-03-06T02:22:53.142Z,82.22
2023-03-06T02:27:55.953Z,82.47
2023-03-06T02:32:59.020Z,82.50
2023-03-06T02:38:09.469Z,82.91
2023-03-06T02:43:12.727Z,82.93
2023-03-06T02:48:16.194Z,83.02
2023-03-06T02:53:20.502Z,82.87
2023-03-06T02:58:23.345Z,82.99
2023-03-06T03:03:26.244Z,83.07
2023-03-06T03:08:29.059Z,83.11
2023-03-06T03:13:32.484Z,83.00
2023-03-06T03:18:35.447Z,83.01
2023-03-06T03:23:38.742Z,83.00
2023-03-06T03:28:41.549Z,83.00
2023-03-06T03:33:44.350Z,83.28
2023-03-06T03:38:47.192Z,83.23
2023-03-06T03:43:50.065Z,83.02
2023-03-06T03:48:52.953Z,82.78
2023-03-06T03:53:58.221Z,82.84
2023-03-06T03:59:01.004Z,82.67
2023-03-06T04:04:03.808Z,82.86
2023-03-06T04:09:06.667Z,82.59
2023-03-06T04:14:09.965Z,82.81
2023-03-06T04:19:13.089Z,82.75
2023-03-06T04:24:17.550Z,82.75
2023-03-06T04:29:20.474Z,82.41
2023-03-06T04:34:23.455Z,82.45
2023-03-06T04:39:26.665Z,82.31
2023-03-06T04:44:30.960Z,82.34
2023-03-06T04:49:33.740Z,82.48
2023-03-06T04:54:36.520Z,82.62
2023-03-06T04:59:39.366Z,82.83
2023-03-06T05:04:43.526Z,83.03
2023-03-06T05:09:46.750Z,82.10
2023-03-06T05:14:49.701Z,82.78
2023-03-06T05:19:52.747Z,82.35
2023-03-06T05:24:55.651Z,81.90
2023-03-06T05:29:58.673Z,82.11
2023-03-06T05:35:01.643Z,82.15
2023-03-06T05:40:06.856Z,82.27
2023-03-06T05:45:10.963Z,82.46
2023-03-06T05:50:15.058Z,82.60
2023-03-06T05:55:19.645Z,82.77
2023-03-06T06:00:23.112Z,82.86
2023-03-06T06:05:25.905Z,82.98
2023-03-06T06:10:29.010Z,83.64
2023-03-06T06:15:31.906Z,83.74
2023-03-06T06:20:36.585Z,83.76
2023-03-06T06:25:39.395Z,83.90
2023-03-06T06:30:42.254Z,83.98
2023-03-06T06:35:45.304Z,83.99
2023-03-06T06:41:11.742Z,84.07
2023-03-06T06:46:47.169Z,83.99
2023-03-06T06:51:34.634Z,84.25
2023-03-06T06:56:37.540Z,84.40
2023-03-06T07:01:40.664Z,84.46
2023-03-06T07:06:43.611Z,84.27
2023-03-06T07:11:46.503Z,84.65
2023-03-06T07:16:49.477Z,84.52
2023-03-06T07:22:16.840Z,84.51
2023-03-06T07:27:19.723Z,84.85
2023-03-06T07:32:22.723Z,84.68
2023-03-06T07:37:25.580Z,84.36
2023-03-06T07:42:29.364Z,84.30
2023-03-06T07:47:32.233Z,84.01
2023-03-06T07:52:35.080Z,84.11
2023-03-06T07:57:38.379Z,83.89
2023-03-06T08:02:41.829Z,83.70
2023-03-06T08:07:45.641Z,83.09
2023-03-06T08:12:48.447Z,82.92
2023-03-06T08:17:51.396Z,82.65
2023-03-06T08:22:54.310Z,82.28
2023-03-06T08:27:57.118Z,81.68
2023-03-06T08:33:01.468Z,81.35
2023-03-06T08:38:04.378Z,80.97
2023-03-06T08:43:13.065Z,80.62
2023-03-06T08:48:16.984Z,80.22
2023-03-06T08:53:20.622Z,79.37
2023-03-06T08:58:24.473Z,78.80
2023-03-06T09:03:27.300Z,78.29
2023-03-06T09:08:30.087Z,78.29
2023-03-06T09:13:33.251Z,77.94
2023-03-06T09:18:36.362Z,77.27
2023-03-06T09:23:39.531Z,75.78
2023-03-06T09:28:42.496Z,74.46
2023-03-06T09:33:47.988Z,74.98
2023-03-06T09:38:52.392Z,73.78
2023-03-06T09:44:08.772Z,74.26
2023-03-06T09:49:37.529Z,72.89
2023-03-06T09:55:10.428Z,73.25
2023-03-06T10:00:20.544Z,73.29
2023-03-06T10:05:27.555Z,71.98
2023-03-06T10:11:05.172Z,70.98
2023-03-06T10:16:32.456Z,71.09
2023-03-06T10:22:02.701Z,69.55
2023-03-06T10:27:40.012Z,69.91
2023-03-06T10:32:55.786Z,70.39
2023-03-06T10:38:24.776Z,69.94
2023-03-06T10:43:28.241Z,70.87
2023-03-06T10:48:35.565Z,71.77
2023-03-06T10:53:42.388Z,73.25
2023-03-06T10:58:45.248Z,73.75
2023-03-06T11:03:48.178Z,74.02
2023-03-06T11:08:50.990Z,74.32
2023-03-06T11:13:58.784Z,75.16
2023-03-06T11:19:05.501Z,75.09
2023-03-06T11:24:16.002Z,75.20
2023-03-06T11:29:39.225Z,75.16
2023-03-06T11:34:50.675Z,75.96
2023-03-06T11:40:05.303Z,76.64
2023-03-06T11:45:37.381Z,77.56
2023-03-06T11:51:06.085Z,77.63
2023-03-06T11:56:31.972Z,77.85
2023-03-06T12:01:54.636Z,77.78
2023-03-06T12:07:20.051Z,77.33
2023-03-06T12:12:47.954Z,77.90
2023-03-06T12:18:23.060Z,78.09
2023-03-06T12:23:58.485Z,78.33
2023-03-06T12:29:28.749Z,78.07
2023-03-06T12:35:23.325Z,78.02
2023-03-06T12:40:57.325Z,78.34
2023-03-06T12:46:36.105Z,78.84
2023-03-06T12:51:39.909Z,79.13
2023-03-06T12:56:42.755Z,79.28
2023-03-06T13:02:01.183Z,79.35
2023-03-06T13:07:38.110Z,79.46
2023-03-06T13:13:22.723Z,79.72
2023-03-06T13:18:25.517Z,79.79
2023-03-06T13:23:42.821Z,80.05
2023-03-06T13:28:50.754Z,80.33
2023-03-06T13:33:53.676Z,80.66
2023-03-06T13:38:57.810Z,80.82
2023-03-06T13:44:05.158Z,81.23
2023-03-06T13:49:08.050Z,81.33
2023-03-06T13:54:47.796Z,81.61
2023-03-06T14:00:15.773Z,82.20
2023-03-06T14:05:18.580Z,82.37
2023-03-06T14:10:26.129Z,82.41
2023-03-06T14:15:50.664Z,82.64
2023-03-06T14:21:13.460Z,83.27
2023-03-06T14:26:22.416Z,83.15
2023-03-06T14:31:29.270Z,83.26
2023-03-06T14:36:36.752Z,83.44
2023-03-06T14:41:39.632Z,83.58
2023-03-06T14:46:43.087Z,83.70
2023-03-06T14:51:50.201Z,83.83
2023-03-06T14:57:06.607Z,84.08
2023-03-06T15:02:11.630Z,84.18
2023-03-06T15:07:21.838Z,84.24
2023-03-06T15:12:24.648Z,84.68
2023-03-06T15:17:27.487Z,84.92
2023-03-06T15:22:38.475Z,85.28
2023-03-06T15:27:41.286Z,85.19
2023-03-06T15:32:44.598Z,85.97
2023-03-06T15:37:47.386Z,86.46
2023-03-06T15:42:51.327Z,86.36
2023-03-06T15:47:55.036Z,86.48
2023-03-06T15:52:58.102Z,86.78
2023-03-06T15:58:02.150Z,87.41
2023-03-06T16:03:05.013Z,87.44
2023-03-06T16:08:17.770Z,87.88
2023-03-06T16:13:26.455Z,87.08
2023-03-06T16:18:31.131Z,87.72
2023-03-06T16:23:38.752Z,88.04
2023-03-06T16:28:44.268Z,87.63
2023-03-06T16:33:47.286Z,87.94
2023-03-06T16:38:50.501Z,87.82
2023-03-06T16:43:53.405Z,87.76
2023-03-06T16:48:56.425Z,87.73
2023-03-06T16:54:00.051Z,88.69
2023-03-06T16:59:02.843Z,88.58
2023-03-06T17:04:05.838Z,88.20
2023-03-06T17:09:10.883Z,88.29
2023-03-06T17:14:14.531Z,88.41
2023-03-06T17:19:17.387Z,88.78
2023-03-06T17:24:20.625Z,88.63
2023-03-06T17:29:23.569Z,89.08
2023-03-06T17:34:26.443Z,89.66
2023-03-06T17:39:37.569Z,89.64
2023-03-06T17:44:40.475Z,89.87
2023-03-06T17:49:43.348Z,89.84
2023-03-06T17:54:46.355Z,89.83
2023-03-06T17:59:49.359Z,89.97
2023-03-06T18:04:52.518Z,89.92
2023-03-06T18:09:56.636Z,89.52
2023-03-06T18:14:59.535Z,89.61
2023-03-06T18:20:02.300Z,89.47
2023-03-06T18:25:06.933Z,89.70
2023-03-06T18:30:11.266Z,89.41
2023-03-06T18:35:14.363Z,89.56
2023-03-06T18:40:17.937Z,89.28
2023-03-06T18:45:20.852Z,89.34
2023-03-06T18:50:23.918Z,89.33
2023-03-06T18:55:26.992Z,89.43
2023-03-06T19:00:30.976Z,89.44
2023-03-06T19:05:34.079Z,89.37
2023-03-06T19:10:38.527Z,89.63
2023-03-06T19:15:47.326Z,89.69
2023-03-06T19:20:52.799Z,89.86
2023-03-06T19:25:59.021Z,89.81
2023-03-06T19:31:25.099Z,89.99
2023-03-06T19:36:33.279Z,90.43
2023-03-06T19:41:36.961Z,90.39
2023-03-06T19:46:40.753Z,90.95
2023-03-06T19:51:44.020Z,90.87
2023-03-06T19:56:46.824Z,90.90
2023-03-06T20:01:49.698Z,90.96
2023-03-06T20:06:52.628Z,91.11
2023-03-06T20:11:55.857Z,91.22
2023-03-06T20:16:58.653Z,91.24
2023-03-06T20:22:01.720Z,91.05
2023-03-06T20:27:04.648Z,91.07
2023-03-06T20:32:07.525Z,91.62
2023-03-06T20:37:10.363Z,91.44
2023-03-06T20:42:13.248Z,92.06
2023-03-06T20:47:16.145Z,92.23
2023-03-06T20:52:19.027Z,92.09
2023-03-06T20:57:21.824Z,91.39
2023-03-06T21:02:24.698Z,91.01
2023-03-06T21:07:27.947Z,91.30
2023-03-06T21:12:31.236Z,91.34
2023-03-06T21:17:34.109Z,91.61
2023-03-06T21:22:36.988Z,91.28
2023-03-06T21:27:40.139Z,91.92
2023-03-06T21:32:42.968Z,91.86
2023-03-06T21:37:46.408Z,92.23
2023-03-06T21:42:49.341Z,92.43
2023-03-06T21:47:52.142Z,92.86
2023-03-06T21:52:56.012Z,93.53
2023-03-06T21:57:58.869Z,94.36
2023-03-06T22:03:05.046Z,94.32
2023-03-06T22:08:07.898Z,94.19
2023-03-06T22:13:12.052Z,94.63
2023-03-06T22:18:15.947Z,94.20
2023-03-06T22:23:18.765Z,94.47
2023-03-06T22:28:21.633Z,93.45
2023-03-06T22:33:24.477Z,93.18
2023-03-06T22:38:27.289Z,93.47
2023-03-06T22:43:31.637Z,93.66
2023-03-06T22:48:34.668Z,93.85
2023-03-06T22:53:37.962Z,93.66
2023-03-06T22:58:40.835Z,93.57
2023-03-06T23:03:49.230Z,93.34
2023-03-06T23:08:58.726Z,93.65
2023-03-06T23:14:01.737Z,93.53
2023-03-06T23:19:05.290Z,93.54
2023-03-06T23:24:08.133Z,93.82
2023-03-06T23:29:11.062Z,93.96
2023-03-06T23:34:13.839Z,94.21
2023-03-06T23:39:16.866Z,93.37
2023-03-06T23:44:19.725Z,92.30
2023-03-06T23:49:22.590Z,91.58
2023-03-06T23:54:25.457Z,90.98
2023-03-06T23:59:29.544Z,89.84
